Time;durP1;ratioP1;P1;durP2;ratioP2;P2;SDS_P1;SDS_P2;PMS_P1;PMS_P2;Temp;Humidity;BMP_temperature;BMP_pressure;BME280_temperature;BME280_humidity;BME280_pressure;Samples;Min_cycle;Max_cycle;Signal;HPM_P1;HPM_P2
2023/01/14 09:24:21;;;;;;;7.40;1.45;;;;;;;5.58;100.00;99125.94;5080474;27;20716;-81
2023/01/14 09:26:47;;;;;;;15.45;2.03;;;;;;;5.55;100.00;99106.53;5085056;28;20048;-80
2023/01/14 09:29:14;;;;;;;5.28;2.20;;;;;;;5.67;100.00;99094.50;5089914;28;20059;-81
2023/01/14 09:31:41;;;;;;;7.25;2.20;;;;;;;5.82;100.00;99103.72;5081424;28;20138;-81
2023/01/14 09:34:07;;;;;;;8.73;2.25;;;;;;;5.73;100.00;99093.88;5076744;28;20058;-82
2023/01/14 09:36:34;;;;;;;10.75;1.88;;;;;;;5.92;100.00;99100.97;5084304;28;20047;-81
2023/01/14 09:39:01;;;;;;;7.63;1.58;;;;;;;5.93;100.00;99089.16;5077421;28;20128;-82
2023/01/14 09:41:32;;;;;;;5.80;1.50;;;;;;;6.15;100.00;99105.88;5081577;28;20056;-81
2023/01/14 09:44:01;;;;;;;8.10;2.20;;;;;;;6.08;100.00;99094.00;5076043;28;20052;-81
2023/01/14 09:46:28;;;;;;;5.85;1.00;;;;;;;6.20;100.00;99077.41;5077809;28;20044;-81
2023/01/14 09:49:00;;;;;;;10.63;1.73;;;;;;;6.34;100.00;99083.22;5074900;28;20202;-82
2023/01/14 09:51:48;;;;;;;8.40;2.53;;;;;;;6.35;100.00;99069.56;5078073;28;20142;-81
2023/01/14 09:54:21;;;;;;;5.75;1.27;;;;;;;6.53;100.00;99077.59;5075558;28;20040;-81
2023/01/14 09:56:55;;;;;;;5.13;1.02;;;;;;;6.60;100.00;99076.94;5077117;28;20093;-81
2023/01/14 09:59:30;;;;;;;14.70;2.00;;;;;;;6.61;100.00;99071.38;5076613;28;20096;-81
2023/01/14 10:02:02;;;;;;;7.07;1.48;;;;;;;6.66;100.00;99065.50;5075952;28;20052;-82
2023/01/14 10:04:47;;;;;;;7.63;1.95;;;;;;;6.64;100.00;99049.44;5077361;28;20072;-82
2023/01/14 10:07:15;;;;;;;5.00;1.38;;;;;;;6.78;100.00;99056.09;5076845;28;20131;-81
2023/01/14 10:09:50;;;;;;;10.80;1.88;;;;;;;6.92;100.00;99062.72;5074198;28;20037;-82
2023/01/14 10:12:24;;;;;;;8.57;1.85;;;;;;;7.01;100.00;99069.00;5077786;28;20056;-82
2023/01/14 10:14:58;;;;;;;5.88;1.45;;;;;;;7.09;100.00;99056.34;5078846;28;21333;-81
2023/01/14 10:17:33;;;;;;;11.50;1.60;;;;;;;7.12;100.00;99049.78;5073277;28;20057;-81
2023/01/14 10:20:08;;;;;;;4.78;1.30;;;;;;;7.09;100.00;99039.28;5067445;28;20049;-80
2023/01/14 10:22:39;;;;;;;7.05;1.65;;;;;;;7.03;100.00;99024.59;5080333;28;20059;-81
2023/01/14 10:25:16;;;;;;;2.65;1.20;;;;;;;7.08;100.00;99022.22;5081032;28;20554;-82
2023/01/14 10:27:47;;;;;;;11.50;1.90;;;;;;;7.01;100.00;99002.25;5085324;28;20051;-81
2023/01/14 10:30:18;;;;;;;8.27;1.33;;;;;;;6.98;100.00;98982.84;5067035;28;20479;-82
2023/01/14 10:32:48;;;;;;;6.47;1.50;;;;;;;7.05;100.00;98954.97;5083429;28;20039;-81
2023/01/14 10:35:17;;;;;;;4.30;1.10;;;;;;;7.17;100.00;98966.31;5075687;28;20040;-81
2023/01/14 10:37:43;;;;;;;6.07;1.17;;;;;;;7.11;100.00;98958.88;5070955;28;20045;-82
2023/01/14 10:40:21;;;;;;;3.00;1.00;;;;;;;7.19;100.00;98963.44;5067872;28;20052;-81
2023/01/14 10:42:49;;;;;;;9.60;1.48;;;;;;;7.10;100.00;98946.34;5068844;28;20052;-82
2023/01/14 10:45:16;;;;;;;4.68;1.25;;;;;;;7.11;100.00;98933.69;5064957;28;20057;-82
2023/01/14 10:47:45;;;;;;;7.35;1.42;;;;;;;7.20;100.00;98929.97;5069983;28;20057;-81
2023/01/14 10:50:21;;;;;;;4.15;1.10;;;;;;;7.41;100.00;98951.09;5061937;28;20081;-82
2023/01/14 10:52:50;;;;;;;4.40;0.90;;;;;;;7.39;100.00;98942.28;5069315;28;20060;-81
2023/01/14 10:55:19;;;;;;;6.90;0.95;;;;;;;7.43;100.00;98928.25;5071123;28;20055;-82
2023/01/14 10:57:50;;;;;;;5.63;1.40;;;;;;;7.37;100.00;98926.25;5071301;28;20052;-82
2023/01/14 11:00:34;;;;;;;6.72;1.23;;;;;;;7.52;100.00;98939.09;5057250;28;20047;-81
2023/01/14 11:03:02;;;;;;;7.57;1.38;;;;;;;7.55;100.00;98930.63;5054947;28;20054;-81
2023/01/14 11:05:31;;;;;;;3.67;1.02;;;;;;;7.65;100.00;98925.03;5061789;28;20059;-82
2023/01/14 11:08:21;;;;;;;2.93;0.93;;;;;;;7.42;100.00;98898.69;5071828;28;20049;-82
2023/01/14 11:11:02;;;;;;;6.88;1.10;;;;;;;7.52;100.00;98896.63;5059869;28;20604;-82
2023/01/14 11:13:32;;;;;;;3.72;0.80;;;;;;;7.53;100.00;98879.41;5068045;28;20452;-81
2023/01/14 11:15:59;;;;;;;4.32;0.80;;;;;;;7.54;100.00;98885.66;5069762;28;20154;-81
2023/01/14 11:18:29;;;;;;;3.50;0.95;;;;;;;7.67;100.00;98890.53;5068235;28;20121;-82
2023/01/14 11:21:07;;;;;;;;;;;;;;;7.75;100.00;98883.25;5061824;28;20058;-82
2023/01/14 11:23:36;;;;;;;3.90;0.85;;;;;;;7.70;100.00;98866.66;5063311;28;19928;-81
2023/01/14 11:26:07;;;;;;;2.17;0.88;;;;;;;7.72;100.00;98866.50;5068077;28;20036;-82
2023/01/14 11:28:39;;;;;;;1.52;0.60;;;;;;;7.62;99.73;98853.19;5062574;28;20317;-82
2023/01/14 11:31:07;;;;;;;4.72;1.20;;;;;;;7.79;98.72;98876.44;5067783;28;20060;-81
2023/01/14 11:33:34;;;;;;;1.33;0.60;;;;;;;7.71;99.57;98864.81;5065526;28;20093;-81
2023/01/14 11:36:02;;;;;;;3.97;1.05;;;;;;;7.81;99.66;98862.75;5068625;28;20049;-81
2023/01/14 11:38:31;;;;;;;3.35;1.67;;;;;;;7.79;99.94;98870.19;5066242;28;20106;-82
2023/01/14 11:43:54;;;;;;;6.10;1.00;;;;;;;7.92;99.64;98845.31;5064301;28;20055;-81
2023/01/14 11:46:21;;;;;;;4.40;0.95;;;;;;;7.94;99.87;98819.72;5061731;28;20050;-81
2023/01/14 11:49:05;;;;;;;4.25;1.05;;;;;;;8.05;98.45;98829.31;5069155;28;20456;-81
2023/01/14 11:51:40;;;;;;;5.43;1.02;;;;;;;8.07;97.86;98812.88;5049553;28;20185;-81
2023/01/14 11:54:19;;;;;;;3.90;1.13;;;;;;;8.03;95.45;98801.59;5056311;28;20117;-82
2023/01/14 11:56:47;;;;;;;3.80;0.85;;;;;;;8.31;97.35;98830.88;5066866;28;20098;-82
2023/01/14 12:02:39;;;;;;;1.33;1.05;;;;;;;8.10;97.13;98790.88;5066885;28;20045;-82
2023/01/14 12:05:12;;;;;;;1.50;0.50;;;;;;;8.30;97.20;98810.22;5066036;28;20049;-82
2023/01/14 12:07:45;;;;;;;3.38;0.80;;;;;;;8.29;95.64;98785.00;5071648;28;20037;-82
2023/01/14 12:10:20;;;;;;;6.55;1.05;;;;;;;8.33;97.30;98780.91;5071945;28;20062;-82
2023/01/14 12:18:37;;;;;;;5.82;1.00;;;;;;;8.37;94.66;98756.19;5060193;28;20059;-82
2023/01/14 12:21:08;;;;;;;2.58;0.63;;;;;;;8.32;95.22;98745.88;5057414;28;20523;-82
2023/01/14 12:23:43;;;;;;;1.52;0.98;;;;;;;8.40;94.96;98747.69;5053426;28;20049;-81
2023/01/14 12:26:19;;;;;;;2.17;0.82;;;;;;;8.26;94.97;98725.78;5062451;28;20057;-82
2023/01/14 12:28:55;;;;;;;3.20;0.93;;;;;;;8.17;96.89;98713.31;5062982;28;20476;-82
2023/01/14 12:31:27;;;;;;;3.20;0.88;;;;;;;8.29;95.88;98721.88;5061133;28;20064;-82
2023/01/14 12:34:03;;;;;;;2.13;0.80;;;;;;;8.09;95.08;98689.88;5068533;28;20051;-82
2023/01/14 12:36:38;;;;;;;1.42;0.90;;;;;;;8.25;95.90;98702.44;5055871;28;20044;-82
2023/01/14 12:47:37;;;;;;;;;;;;;;;8.17;96.42;98661.88;5062565;28;20056;-82
2023/01/14 12:50:08;;;;;;;0.95;0.73;;;;;;;8.02;97.38;98636.63;5061945;28;20429;-82
2023/01/14 12:52:38;;;;;;;1.65;0.70;;;;;;;7.95;96.81;98626.53;5061060;28;20051;-82
2023/01/14 12:55:07;;;;;;;5.68;1.55;;;;;;;8.09;96.84;98651.13;5066098;28;20063;-82
2023/01/14 12:57:39;;;;;;;2.05;0.75;;;;;;;8.09;96.08;98637.59;5066454;28;20384;-82
2023/01/14 13:00:11;;;;;;;5.13;0.75;;;;;;;8.00;96.55;98617.88;5069350;28;20052;-82
2023/01/14 13:02:42;;;;;;;1.63;0.55;;;;;;;8.02;96.69;98629.34;5063962;28;20084;-82
2023/01/14 13:05:13;;;;;;;2.67;0.75;;;;;;;8.13;96.18;98631.63;5062847;28;20055;-82
2023/01/14 13:07:48;;;;;;;2.15;0.98;;;;;;;8.17;94.09;98625.84;5071028;28;20052;-82
2023/01/14 13:10:29;;;;;;;2.42;0.95;;;;;;;8.17;94.53;98620.44;5069555;28;20131;-82
2023/01/14 13:12:56;;;;;;;0.57;0.57;;;;;;;8.15;94.25;98610.63;5048304;28;20053;-82
2023/01/14 13:15:26;;;;;;;2.72;0.80;;;;;;;8.04;95.91;98588.56;5051449;28;20395;-82
2023/01/14 13:17:54;;;;;;;2.55;0.90;;;;;;;8.02;94.82;98577.91;5069088;28;20053;-82
2023/01/14 13:20:51;;;;;;;2.92;0.88;;;;;;;8.09;93.84;98578.88;5068257;28;20056;-82
2023/01/14 13:23:55;;;;;;;0.95;0.68;;;;;;;8.21;94.82;98597.38;5064423;28;20048;-82
2023/01/14 13:26:57;;;;;;;2.42;0.85;;;;;;;8.04;94.97;98561.47;5070481;28;20407;-82
2023/01/14 13:29:26;;;;;;;3.55;0.85;;;;;;;8.17;93.14;98574.41;5066435;28;20052;-82
2023/01/14 13:31:54;;;;;;;3.03;0.97;;;;;;;8.14;93.23;98564.78;5066091;28;20045;-82
2023/01/14 13:34:35;;;;;;;2.25;0.60;;;;;;;8.23;93.21;98576.38;5069415;28;20693;-82
2023/01/14 13:37:33;;;;;;;2.80;1.67;;;;;;;8.23;94.42;98569.09;5050931;28;20429;-82
2023/01/14 13:40:01;;;;;;;2.88;1.10;;;;;;;8.24;94.70;98565.34;5057711;28;20052;-82
2023/01/14 13:42:38;;;;;;;1.23;0.65;;;;;;;8.06;94.55;98552.16;5068569;28;20056;-82
2023/01/14 13:45:19;;;;;;;3.40;1.20;;;;;;;8.22;93.19;98548.47;5055490;28;20048;-82
2023/01/14 13:47:50;;;;;;;2.67;0.88;;;;;;;8.12;96.18;98537.06;5069047;28;20106;-81
2023/01/14 13:50:23;;;;;;;2.85;1.02;;;;;;;8.22;96.35;98562.00;5069906;28;20051;-81
2023/01/14 13:52:54;;;;;;;4.13;1.58;;;;;;;8.00;97.21;98527.69;5069798;28;20411;-80
2023/01/14 13:55:24;;;;;;;1.88;0.70;;;;;;;8.12;96.98;98537.06;5069727;28;20045;-81
2023/01/14 13:57:54;;;;;;;3.15;0.88;;;;;;;7.93;97.95;98516.75;5066883;28;20068;-81
2023/01/14 14:00:34;;;;;;;;;;;;;;;8.09;98.58;98526.59;5068995;28;20053;-81
2023/01/14 14:03:34;;;;;;;3.38;0.90;;;;;;;8.01;98.38;98521.25;5069851;28;20030;-81
2023/01/14 14:06:38;;;;;;;3.67;1.40;;;;;;;7.97;98.31;98510.78;5063387;28;20695;-80
2023/01/14 14:09:09;;;;;;;2.05;1.02;;;;;;;7.80;98.74;98483.06;5051806;28;20061;-80
2023/01/14 14:11:42;;;;;;;5.50;1.42;;;;;;;7.93;99.24;98508.63;5073128;28;20395;-81
2023/01/14 14:14:16;;;;;;;6.05;1.35;;;;;;;7.91;97.07;98511.53;5071642;28;20403;-81
2023/01/14 14:16:50;;;;;;;5.13;1.50;;;;;;;7.90;94.84;98490.91;5074118;28;20535;-81
2023/01/14 14:19:19;;;;;;;5.07;1.00;;;;;;;7.95;95.14;98503.91;5052288;28;20448;-80
2023/01/14 14:21:51;;;;;;;2.00;0.93;;;;;;;7.86;95.45;98492.31;5062085;28;20052;-80
2023/01/14 14:24:23;;;;;;;1.67;0.95;;;;;;;7.86;96.44;98499.56;5070221;28;20040;-81
2023/01/14 14:26:51;;;;;;;5.05;1.60;;;;;;;7.75;97.37;98480.06;5067061;28;20048;-83
2023/01/14 14:29:21;;;;;;;3.53;1.25;;;;;;;7.83;96.87;98499.94;5062006;28;20063;-80
2023/01/14 14:31:50;;;;;;;5.35;1.95;;;;;;;7.81;98.30;98497.41;5074973;28;20127;-80
2023/01/14 14:34:21;;;;;;;11.52;2.60;;;;;;;7.72;100.00;98493.09;5070269;28;20047;-80
2023/01/14 14:36:54;;;;;;;6.88;1.77;;;;;;;7.62;100.00;98493.38;5068459;28;20048;-80
2023/01/14 14:39:26;;;;;;;6.55;1.38;;;;;;;7.71;100.00;98502.25;5066809;28;20052;-80
2023/01/14 14:41:53;;;;;;;3.65;1.40;;;;;;;7.59;100.00;98509.97;5072744;28;20506;-80
2023/01/14 14:44:22;;;;;;;2.85;1.40;;;;;;;7.48;100.00;98503.09;5071943;28;20044;-81
2023/01/14 14:46:48;;;;;;;8.87;2.87;;;;;;;7.47;100.00;98511.41;5066356;28;20040;-80
2023/01/14 14:49:23;;;;;;;8.57;3.28;;;;;;;7.38;100.00;98505.22;5071492;28;20385;-80
2023/01/14 14:51:51;;;;;;;4.05;2.22;;;;;;;7.33;100.00;98504.91;5072833;28;20436;-80
2023/01/14 14:54:26;;;;;;;5.75;2.10;;;;;;;7.39;100.00;98496.06;5061696;28;20036;-80
2023/01/14 14:56:53;;;;;;;2.53;1.17;;;;;;;7.19;100.00;98464.13;5072606;28;20054;-80
2023/01/14 14:59:23;;;;;;;5.28;2.10;;;;;;;7.32;100.00;98468.09;5070148;28;20051;-80
2023/01/14 15:01:49;;;;;;;3.30;1.52;;;;;;;7.20;100.00;98429.84;5072288;28;20093;-80
2023/01/14 15:04:18;;;;;;;6.32;1.75;;;;;;;7.15;100.00;98395.25;5069229;28;20052;-80
2023/01/14 15:06:45;;;;;;;5.32;1.40;;;;;;;7.08;100.00;98414.03;5071021;28;20119;-79
2023/01/14 15:09:18;;;;;;;4.35;1.60;;;;;;;7.06;100.00;98393.59;5066848;28;20135;-80
2023/01/14 15:11:47;;;;;;;3.90;1.52;;;;;;;7.16;100.00;98418.53;5070404;28;20135;-80
2023/01/14 15:14:24;;;;;;;4.22;1.58;;;;;;;7.09;100.00;98407.59;5069451;28;20067;-80
2023/01/14 15:16:52;;;;;;;5.65;1.67;;;;;;;7.13;100.00;98418.88;5069561;28;20472;-79
2023/01/14 15:19:19;;;;;;;6.32;1.70;;;;;;;7.11;100.00;98412.84;5069533;28;20044;-79
2023/01/14 15:21:49;;;;;;;4.85;1.73;;;;;;;7.09;100.00;98429.22;5069624;28;20068;-79
2023/01/14 15:24:19;;;;;;;;;;;;;;;7.09;100.00;98431.06;5071049;28;20080;-80
2023/01/14 15:26:47;;;;;;;4.70;1.58;;;;;;;7.02;100.00;98416.63;5071253;28;19931;-79
2023/01/14 15:29:17;;;;;;;4.03;1.70;;;;;;;7.05;100.00;98437.88;5069439;28;20435;-79
2023/01/14 15:31:46;;;;;;;3.30;1.73;;;;;;;6.78;100.00;98420.34;5064080;28;20049;-79
2023/01/14 15:34:24;;;;;;;6.00;1.95;;;;;;;6.72;100.00;98422.72;5063318;28;20415;-79
2023/01/14 15:37:07;;;;;;;3.22;1.63;;;;;;;6.72;100.00;98411.91;5072082;28;20102;-79
2023/01/14 15:39:40;;;;;;;2.75;1.40;;;;;;;6.91;100.00;98426.00;5065990;28;20072;-79
2023/01/14 15:42:07;;;;;;;2.10;1.20;;;;;;;6.89;100.00;98428.03;5065990;28;20049;-79
2023/01/14 15:44:37;;;;;;;5.32;1.17;;;;;;;6.85;100.00;98411.34;5072917;28;20533;-80
2023/01/14 15:47:06;;;;;;;3.17;1.30;;;;;;;6.95;100.00;98413.78;5063736;28;20044;-79
2023/01/14 15:49:34;;;;;;;1.80;1.00;;;;;;;7.06;100.00;98434.13;5070886;28;20045;-79
2023/01/14 15:52:05;;;;;;;1.25;0.80;;;;;;;6.96;100.00;98401.13;5071521;28;20135;-80
2023/01/14 15:54:35;;;;;;;3.50;1.20;;;;;;;7.16;100.00;98410.41;5060124;28;20064;-80
2023/01/14 15:57:16;;;;;;;2.67;1.52;;;;;;;7.15;100.00;98402.50;5061378;28;20051;-80
2023/01/14 16:00:03;;;;;;;1.40;0.90;;;;;;;7.16;100.00;98410.41;5057061;28;20048;-79
2023/01/14 16:02:31;;;;;;;1.33;0.93;;;;;;;7.15;100.00;98406.06;5061769;28;20041;-79
2023/01/14 16:05:19;;;;;;;3.97;1.58;;;;;;;7.09;100.00;98396.78;5066880;28;20041;-79
2023/01/14 16:07:46;;;;;;;4.15;1.13;;;;;;;7.08;100.00;98399.69;5072311;28;20406;-80
2023/01/14 16:10:14;;;;;;;3.40;1.00;;;;;;;7.06;100.00;98378.25;5065678;28;20491;-80
2023/01/14 16:12:41;;;;;;;4.32;0.85;;;;;;;6.92;100.00;98352.00;5056479;28;20045;-79
2023/01/14 16:15:16;;;;;;;2.10;0.93;;;;;;;7.26;96.09;98372.34;5069722;28;20478;-79
2023/01/14 16:17:44;;;;;;;1.40;0.70;;;;;;;7.44;89.61;98372.81;5056175;28;20056;-79
2023/01/14 16:20:14;;;;;;;0.73;0.55;;;;;;;7.52;93.00;98373.78;5067154;28;20059;-78
2023/01/14 16:22:40;;;;;;;3.22;1.35;;;;;;;7.46;95.05;98369.94;5069986;28;20044;-79
2023/01/14 16:25:08;;;;;;;1.05;0.60;;;;;;;7.28;95.46;98348.66;5072164;28;20049;-79
2023/01/14 16:27:36;;;;;;;2.92;0.85;;;;;;;7.48;92.09;98367.03;5072107;28;20040;-78
2023/01/14 16:30:03;;;;;;;1.70;1.10;;;;;;;7.43;92.87;98376.53;5070645;28;20056;-78
2023/01/14 16:32:30;;;;;;;2.05;0.90;;;;;;;7.62;88.38;98368.94;5067336;28;20556;-80
2023/01/14 16:34:58;;;;;;;1.45;1.00;;;;;;;7.57;88.71;98364.09;5071704;28;20381;-79
2023/01/14 16:37:25;;;;;;;1.88;0.70;;;;;;;7.71;88.16;98357.00;5070564;28;20041;-79
2023/01/14 16:39:51;;;;;;;3.78;0.73;;;;;;;7.85;86.43;98354.47;5071806;28;20360;-80
2023/01/14 16:42:18;;;;;;;0.40;0.40;;;;;;;7.87;83.63;98337.00;5071393;28;20053;-77
2023/01/14 16:44:44;;;;;;;1.45;0.50;;;;;;;7.82;86.64;98325.09;5070848;28;20056;-80
2023/01/14 16:47:14;;;;;;;1.50;0.75;;;;;;;7.88;87.42;98351.41;5067150;28;20056;-79
2023/01/14 16:49:40;;;;;;;1.02;0.68;;;;;;;7.83;88.72;98342.97;5064676;28;20381;-78
2023/01/14 16:52:09;;;;;;;2.00;0.60;;;;;;;7.71;89.50;98326.41;5069323;28;20055;-80
2023/01/14 16:54:35;;;;;;;1.92;0.95;;;;;;;7.62;88.55;98314.84;5071921;28;20137;-78
2023/01/14 16:57:02;;;;;;;0.68;0.60;;;;;;;7.68;87.84;98326.75;5068298;28;20067;-78
2023/01/14 16:59:28;;;;;;;2.53;0.50;;;;;;;7.84;87.62;98331.13;5071115;28;20647;-77
2023/01/14 17:01:55;;;;;;;1.20;0.70;;;;;;;7.94;87.95;98343.34;5071547;28;20059;-78
2023/01/14 17:04:22;;;;;;;5.07;0.80;;;;;;;7.93;85.80;98339.00;5066325;28;20520;-78
2023/01/14 17:06:50;;;;;;;2.05;0.80;;;;;;;7.79;87.61;98318.19;5067245;28;20044;-78
2023/01/14 17:09:18;;;;;;;1.13;0.70;;;;;;;7.79;90.16;98337.13;5071762;28;20048;-78
2023/01/14 17:14:29;;;;;;;3.28;1.33;;;;;;;7.92;87.69;98325.66;5071402;28;20535;-79
2023/01/14 17:16:55;;;;;;;1.30;0.90;;;;;;;7.89;88.05;98326.84;5070142;28;20422;-79
2023/01/14 17:19:22;;;;;;;1.77;0.77;;;;;;;7.86;88.58;98326.38;5061532;28;20045;-78
2023/01/14 17:21:49;;;;;;;2.53;0.57;;;;;;;7.94;84.93;98326.28;5060404;28;20059;-79
2023/01/14 17:24:16;;;;;;;2.00;0.80;;;;;;;7.91;87.13;98313.13;5067843;28;20080;-79
2023/01/14 17:26:44;;;;;;;1.20;0.68;;;;;;;7.87;87.35;98322.66;5062068;28;20072;-79
2023/01/14 17:29:11;;;;;;;1.95;0.47;;;;;;;7.79;89.90;98310.06;5056654;28;20056;-78
2023/01/14 17:31:38;;;;;;;1.50;0.65;;;;;;;7.83;91.42;98322.19;5064414;28;20131;-78
2023/01/14 17:34:04;;;;;;;2.10;0.70;;;;;;;7.69;93.44;98304.91;5070438;28;20048;-79
2023/01/14 17:36:31;;;;;;;0.95;0.60;;;;;;;7.59;91.80;98301.69;5070261;28;20136;-79
2023/01/14 17:38:57;;;;;;;2.60;0.77;;;;;;;7.57;92.77;98309.97;5062802;28;20376;-79
2023/01/14 17:44:15;;;;;;;0.93;0.55;;;;;;;7.57;94.89;98291.06;5070826;28;20513;-79
2023/01/14 17:46:41;;;;;;;1.42;0.65;;;;;;;7.58;94.18;98281.88;5071962;28;20108;-79
2023/01/14 17:49:11;;;;;;;2.58;0.95;;;;;;;7.50;96.45;98278.44;5073268;28;20503;-79
2023/01/14 17:51:38;;;;;;;1.60;0.70;;;;;;;7.56;96.96;98283.13;5070403;28;20107;-79
2023/01/14 17:54:05;;;;;;;1.13;0.70;;;;;;;7.60;97.96;98301.50;5071885;28;20056;-79
2023/01/14 17:56:31;;;;;;;0.70;0.63;;;;;;;7.66;94.48;98305.28;5071535;28;20048;-79
2023/01/14 17:58:58;;;;;;;1.65;0.90;;;;;;;7.59;97.08;98288.16;5072033;28;20044;-78
2023/01/14 18:01:26;;;;;;;1.30;0.98;;;;;;;7.66;97.38;98302.59;5075472;28;20135;-79
2023/01/14 18:03:54;;;;;;;3.80;0.98;;;;;;;7.73;95.09;98300.00;5072034;28;20056;-79
2023/01/14 18:06:21;;;;;;;1.40;0.75;;;;;;;7.90;93.68;98304.19;5068949;28;20041;-79
2023/01/14 18:08:47;;;;;;;3.92;0.90;;;;;;;7.89;97.78;98301.63;5063322;28;20104;-79
2023/01/14 18:11:14;;;;;;;2.15;0.70;;;;;;;7.84;97.64;98299.50;5074142;28;20060;-79
2023/01/14 18:13:43;;;;;;;1.75;0.77;;;;;;;7.78;99.34;98292.13;5073504;28;20044;-79
2023/01/14 18:16:10;;;;;;;0.95;0.65;;;;;;;7.84;99.58;98288.69;5071215;28;20067;-79
2023/01/14 18:18:38;;;;;;;1.38;1.20;;;;;;;7.76;100.00;98265.28;5070633;28;20044;-79
2023/01/14 18:21:08;;;;;;;2.20;0.80;;;;;;;7.82;100.00;98285.31;5073962;28;20087;-79
2023/01/14 18:23:38;;;;;;;1.27;0.73;;;;;;;7.69;100.00;98269.75;5073996;28;20464;-79
2023/01/14 18:26:07;;;;;;;;;;;;;;;7.84;100.00;98271.59;5075590;28;20059;-79
2023/01/14 18:28:36;;;;;;;1.40;0.88;;;;;;;7.90;100.00;98257.31;5071727;28;19924;-79
2023/01/14 18:31:03;;;;;;;2.20;0.90;;;;;;;7.75;100.00;98258.19;5074437;28;20043;-79
2023/01/14 18:33:29;;;;;;;1.33;0.80;;;;;;;7.89;100.00;98259.19;5073557;28;20506;-79
2023/01/14 18:35:57;;;;;;;1.33;0.77;;;;;;;7.82;100.00;98263.69;5074303;28;20045;-79
2023/01/14 18:38:24;;;;;;;1.00;0.60;;;;;;;7.66;100.00;98221.44;5073856;28;20051;-79
2023/01/14 18:40:51;;;;;;;1.27;0.82;;;;;;;7.70;100.00;98238.97;5071487;28;20083;-80
2023/01/14 18:43:17;;;;;;;0.70;0.68;;;;;;;7.79;100.00;98250.53;5069989;28;20079;-80
2023/01/14 18:45:44;;;;;;;8.30;0.90;;;;;;;7.67;100.00;98217.72;5074210;28;20045;-80
2023/01/14 18:48:11;;;;;;;2.45;1.10;;;;;;;7.84;100.00;98248.09;5074549;28;20175;-79
2023/01/14 18:50:37;;;;;;;1.98;0.70;;;;;;;7.75;100.00;98236.56;5074505;28;20048;-80
2023/01/14 18:53:05;;;;;;;2.58;1.17;;;;;;;7.72;100.00;98245.06;5072171;28;20048;-80
2023/01/14 18:55:32;;;;;;;1.13;0.80;;;;;;;7.71;100.00;98237.94;5065908;28;20053;-80
2023/01/14 18:57:58;;;;;;;1.85;1.20;;;;;;;7.77;100.00;98234.50;5079005;28;20049;-79
2023/01/14 19:00:26;;;;;;;2.17;0.63;;;;;;;7.79;100.00;98223.47;5080487;28;20498;-80
2023/01/14 19:02:52;;;;;;;1.75;0.90;;;;;;;7.84;100.00;98225.59;5073302;28;20736;-80
2023/01/14 19:05:20;;;;;;;3.67;1.85;;;;;;;7.77;100.00;98220.97;5074072;28;20045;-79
2023/01/14 19:07:48;;;;;;;2.97;1.70;;;;;;;7.81;100.00;98210.59;5074534;28;20052;-80
2023/01/14 19:10:17;;;;;;;1.75;1.40;;;;;;;7.89;100.00;98226.72;5070017;28;20052;-80
2023/01/14 19:12:43;;;;;;;2.20;0.90;;;;;;;7.82;100.00;98208.72;5065463;28;20076;-80
2023/01/14 19:15:10;;;;;;;3.05;1.00;;;;;;;7.71;100.00;98183.03;5067488;28;20041;-80
2023/01/14 19:17:37;;;;;;;3.22;0.90;;;;;;;7.89;100.00;98187.97;5069413;28;20055;-80
2023/01/14 19:20:04;;;;;;;3.63;1.13;;;;;;;7.79;100.00;98172.91;5066528;28;20048;-80
2023/01/14 19:22:31;;;;;;;6.20;1.50;;;;;;;7.79;100.00;98166.66;5073519;28;20091;-80
2023/01/14 19:24:57;;;;;;;1.83;1.15;;;;;;;7.89;100.00;98174.44;5063174;28;20056;-80
2023/01/14 19:27:25;;;;;;;1.27;0.75;;;;;;;7.93;100.00;98170.34;5057063;28;20051;-80
2023/01/14 19:29:52;;;;;;;1.77;1.20;;;;;;;7.85;100.00;98159.66;5063100;28;20044;-80
2023/01/14 19:32:19;;;;;;;1.88;1.13;;;;;;;7.85;100.00;98146.94;5072163;28;20049;-80
2023/01/14 19:34:46;;;;;;;1.10;0.80;;;;;;;8.01;100.00;98175.63;5073429;28;20052;-80
2023/01/14 19:37:13;;;;;;;2.03;0.90;;;;;;;7.97;100.00;98166.22;5069922;28;20055;-80
2023/01/14 19:39:39;;;;;;;1.80;0.85;;;;;;;7.95;100.00;98147.47;5061693;28;20056;-80
2023/01/14 19:42:06;;;;;;;1.30;0.90;;;;;;;8.00;100.00;98156.88;5053300;28;20387;-79
2023/01/14 19:44:34;;;;;;;3.00;0.90;;;;;;;7.85;100.00;98138.81;5053351;28;20060;-80
2023/01/14 19:47:00;;;;;;;0.77;0.60;;;;;;;7.90;100.00;98147.22;5061575;28;20131;-79
2023/01/14 19:49:27;;;;;;;1.42;0.80;;;;;;;8.03;100.00;98168.16;5072325;28;20115;-79
2023/01/14 19:51:53;;;;;;;1.40;0.90;;;;;;;8.00;100.00;98156.88;5073360;28;20051;-80
2023/01/14 19:54:20;;;;;;;1.33;0.77;;;;;;;7.83;100.00;98148.16;5069876;28;20044;-80
2023/01/14 19:56:46;;;;;;;5.88;0.90;;;;;;;7.92;100.00;98158.69;5073416;28;20476;-80
2023/01/14 19:59:13;;;;;;;1.13;0.73;;;;;;;7.84;100.00;98133.59;5073127;28;20052;-80
2023/01/14 20:01:41;;;;;;;3.10;0.90;;;;;;;7.84;100.00;98133.59;5067737;28;20110;-80
2023/01/14 20:04:12;;;;;;;1.25;1.00;;;;;;;7.85;100.00;98135.28;5069923;28;20056;-80
2023/01/14 20:06:38;;;;;;;0.68;0.63;;;;;;;7.84;100.00;98128.19;5071746;28;20048;-79
2023/01/14 20:09:07;;;;;;;1.17;0.80;;;;;;;7.85;100.00;98114.47;5073223;28;20174;-79
2023/01/14 20:11:34;;;;;;;2.25;1.30;;;;;;;7.92;100.00;98119.97;5070418;28;20059;-80
2023/01/14 20:14:01;;;;;;;3.17;1.10;;;;;;;8.03;100.00;98129.44;5067008;28;20037;-79
2023/01/14 20:16:28;;;;;;;1.77;1.30;;;;;;;8.04;100.00;98129.22;5072142;28;20128;-80
2023/01/14 20:18:56;;;;;;;1.80;1.00;;;;;;;8.08;100.00;98121.56;5066639;28;20435;-79
2023/01/14 20:21:24;;;;;;;2.25;0.85;;;;;;;8.26;100.00;98129.22;5062676;28;20052;-80
2023/01/14 20:23:52;;;;;;;2.33;1.00;;;;;;;8.36;100.00;98121.59;5067342;28;20045;-79
2023/01/14 20:26:20;;;;;;;2.10;0.90;;;;;;;8.31;100.00;98107.81;5072353;28;20048;-80
2023/01/14 20:28:48;;;;;;;2.05;0.82;;;;;;;8.42;100.00;98125.38;5072138;28;20048;-80
2023/01/14 20:31:16;;;;;;;0.85;0.50;;;;;;;8.21;100.00;98069.41;5071568;28;20061;-80
2023/01/14 20:33:43;;;;;;;4.93;0.68;;;;;;;8.31;100.00;98089.69;5072288;28;20049;-80
2023/01/14 20:36:12;;;;;;;0.73;0.60;;;;;;;8.42;100.00;98095.59;5067838;28;20127;-80
2023/01/14 20:38:39;;;;;;;1.42;0.57;;;;;;;8.56;100.00;98080.28;5077163;28;20625;-80
2023/01/14 20:41:07;;;;;;;0.63;0.50;;;;;;;8.60;100.00;98057.19;5065612;28;20495;-80
2023/01/14 20:43:35;;;;;;;1.92;0.73;;;;;;;8.60;100.00;98059.91;5051539;28;20115;-80
2023/01/14 20:46:02;;;;;;;0.68;0.60;;;;;;;8.95;100.00;98076.13;5052479;28;20053;-80
2023/01/14 20:48:29;;;;;;;1.25;0.68;;;;;;;8.96;100.00;98077.81;5054392;28;20053;-80
2023/01/14 20:50:57;;;;;;;4.85;0.50;;;;;;;9.13;100.00;98089.16;5065452;28;20071;-80
2023/01/14 20:53:26;;;;;;;0.57;0.50;;;;;;;9.19;100.00;98056.63;5064006;28;20059;-80
2023/01/14 20:55:54;;;;;;;0.35;0.35;;;;;;;9.29;100.00;98050.84;5065127;28;20043;-80
2023/01/14 20:59:22;;;;;;;1.23;0.52;;;;;;;9.35;100.00;98051.91;5052012;28;20144;-80
2023/01/14 21:01:12;;;;;;;0.75;0.60;;;;;;;9.61;100.00;98067.41;5058902;28;20487;-80
2023/01/14 21:03:39;;;;;;;0.43;0.40;;;;;;;9.54;100.00;98053.81;5063771;28;20124;-80
2023/01/14 21:06:08;;;;;;;0.75;0.32;;;;;;;9.51;100.00;98045.25;5068937;28;20041;-80
2023/01/14 21:08:37;;;;;;;0.68;0.30;;;;;;;9.73;98.04;98059.50;5069932;28;20044;-80
2023/01/14 21:11:04;;;;;;;0.20;0.20;;;;;;;9.79;97.01;98044.25;5070935;28;20041;-80
2023/01/14 21:24:28;;;;;;;0.77;0.40;;;;;;;10.01;96.71;98055.75;5060059;28;20077;-80
2023/01/14 21:26:55;;;;;;;0.75;0.52;;;;;;;10.00;96.32;98040.50;5066526;28;20076;-79
2023/01/14 21:29:21;;;;;;;0.63;0.50;;;;;;;9.87;97.18;98044.03;5067747;28;20055;-79
2023/01/14 21:31:48;;;;;;;0.57;0.47;;;;;;;9.89;97.50;98036.50;5057922;28;20049;-79
2023/01/14 21:34:14;;;;;;;0.40;0.38;;;;;;;9.92;98.51;98053.25;5069546;28;20131;-80
2023/01/14 21:36:41;;;;;;;0.30;0.30;;;;;;;9.83;97.72;98027.34;5066256;28;20068;-80
2023/01/14 21:39:07;;;;;;;0.43;0.38;;;;;;;9.80;98.66;98016.91;5063418;28;20132;-80
2023/01/14 21:44:19;;;;;;;0.55;0.35;;;;;;;10.00;98.64;98045.94;5070698;28;20066;-80
2023/01/14 21:46:46;;;;;;;0.90;0.38;;;;;;;9.89;97.47;98015.66;5071082;28;20047;-80
2023/01/14 21:49:12;;;;;;;0.40;0.30;;;;;;;9.89;97.02;98025.66;5070942;28;20045;-80
2023/01/14 21:51:39;;;;;;;0.17;0.17;;;;;;;9.99;96.29;98012.50;5071232;28;20048;-79
2023/01/14 21:54:05;;;;;;;0.30;0.30;;;;;;;10.00;95.96;98014.19;5071200;28;20049;-80
2023/01/14 21:56:32;;;;;;;0.40;0.30;;;;;;;9.95;98.22;98018.56;5068061;28;20056;-80